sensor_id;sensor_type;location;lat;lon;timestamp;temperature;humidity
17370;DHT22;8802;52.402;4.920;2023-01-06T00:01:05;14.20;99.90
17370;DHT22;8802;52.402;4.920;2023-01-06T00:03:32;14.20;99.90
17370;DHT22;8802;52.402;4.920;2023-01-06T00:05:59;14.20;99.90
17370;DHT22;8802;52.402;4.920;2023-01-06T00:08:26;14.10;99.90
17370;DHT22;8802;52.402;4.920;2023-01-06T00:10:53;14.10;99.90
17370;DHT22;8802;52.402;4.920;2023-01-06T00:13:21;14.10;99.90
17370;DHT22;8802;52.402;4.920;2023-01-06T00:15:48;14.10;99.90
17370;DHT22;8802;52.402;4.920;2023-01-06T00:18:16;14.10;99.90
17370;DHT22;8802;52.402;4.920;2023-01-06T00:20:43;14.10;99.90
17370;DHT22;8802;52.402;4.920;2023-01-06T00:23:09;14.10;99.90
17370;DHT22;8802;52.402;4.920;2023-01-06T00:25:36;14.00;99.90
17370;DHT22;8802;52.402;4.920;2023-01-06T00:28:03;14.00;99.90
17370;DHT22;8802;52.402;4.920;2023-01-06T00:30:30;14.00;99.90
17370;DHT22;8802;52.402;4.920;2023-01-06T00:32:57;14.00;99.90
17370;DHT22;8802;52.402;4.920;2023-01-06T00:35:25;14.00;99.90
17370;DHT22;8802;52.402;4.920;2023-01-06T00:37:52;14.00;99.90
17370;DHT22;8802;52.402;4.920;2023-01-06T00:40:19;14.00;99.90
17370;DHT22;8802;52.402;4.920;2023-01-06T00:42:45;14.00;99.90
17370;DHT22;8802;52.402;4.920;2023-01-06T00:45:12;14.00;99.90
17370;DHT22;8802;52.402;4.920;2023-01-06T00:47:39;14.00;99.90
17370;DHT22;8802;52.402;4.920;2023-01-06T00:50:07;14.00;99.90
17370;DHT22;8802;52.402;4.920;2023-01-06T00:52:35;14.00;99.90
17370;DHT22;8802;52.402;4.920;2023-01-06T00:55:02;14.00;99.90
17370;DHT22;8802;52.402;4.920;2023-01-06T00:57:29;14.00;99.90
17370;DHT22;8802;52.402;4.920;2023-01-06T00:59:56;14.00;99.90
17370;DHT22;8802;52.402;4.920;2023-01-06T01:02:23;14.00;99.90
17370;DHT22;8802;52.402;4.920;2023-01-06T01:04:49;14.00;99.90
17370;DHT22;8802;52.402;4.920;2023-01-06T01:07:16;14.00;99.90
17370;DHT22;8802;52.402;4.920;2023-01-06T01:09:44;14.00;99.90
17370;DHT22;8802;52.402;4.920;2023-01-06T01:12:12;14.00;99.90
17370;DHT22;8802;52.402;4.920;2023-01-06T01:14:41;14.00;99.90
17370;DHT22;8802;52.402;4.920;2023-01-06T01:17:10;14.00;99.90
17370;DHT22;8802;52.402;4.920;2023-01-06T01:19:38;14.00;99.90
17370;DHT22;8802;52.402;4.920;2023-01-06T01:22:05;14.00;99.90
17370;DHT22;8802;52.402;4.920;2023-01-06T01:24:33;14.00;99.90
17370;DHT22;8802;52.402;4.920;2023-01-06T01:27:02;14.00;99.90
17370;DHT22;8802;52.402;4.920;2023-01-06T01:29:29;14.00;99.90
17370;DHT22;8802;52.402;4.920;2023-01-06T01:31:56;14.00;99.90
17370;DHT22;8802;52.402;4.920;2023-01-06T01:34:23;14.00;99.90
17370;DHT22;8802;52.402;4.920;2023-01-06T01:36:51;14.00;99.90
17370;DHT22;8802;52.402;4.920;2023-01-06T01:39:19;14.00;99.90
17370;DHT22;8802;52.402;4.920;2023-01-06T01:41:47;14.00;99.90
17370;DHT22;8802;52.402;4.920;2023-01-06T01:47:36;14.00;99.90
17370;DHT22;8802;52.402;4.920;2023-01-06T01:50:09;14.00;99.90
17370;DHT22;8802;52.402;4.920;2023-01-06T01:52:37;14.00;99.90
17370;DHT22;8802;52.402;4.920;2023-01-06T01:55:06;14.00;99.90
17370;DHT22;8802;52.402;4.920;2023-01-06T01:57:36;14.00;99.90
17370;DHT22;8802;52.402;4.920;2023-01-06T02:00:07;14.00;99.90
17370;DHT22;8802;52.402;4.920;2023-01-06T02:02:36;14.00;99.90
17370;DHT22;8802;52.402;4.920;2023-01-06T02:05:04;14.00;99.90
17370;DHT22;8802;52.402;4.920;2023-01-06T02:07:32;14.00;99.90
17370;DHT22;8802;52.402;4.920;2023-01-06T02:10:06;14.00;99.90
17370;DHT22;8802;52.402;4.920;2023-01-06T02:12:33;14.00;99.90
17370;DHT22;8802;52.402;4.920;2023-01-06T02:15:01;14.00;99.90
17370;DHT22;8802;52.402;4.920;2023-01-06T02:17:49;14.00;99.90
17370;DHT22;8802;52.402;4.920;2023-01-06T02:20:31;14.00;99.90
17370;DHT22;8802;52.402;4.920;2023-01-06T02:23:32;14.00;99.90
17370;DHT22;8802;52.402;4.920;2023-01-06T02:29:38;14.00;99.90
17370;DHT22;8802;52.402;4.920;2023-01-06T02:32:18;14.00;99.90
17370;DHT22;8802;52.402;4.920;2023-01-06T02:34:54;14.00;99.90
17370;DHT22;8802;52.402;4.920;2023-01-06T02:37:37;14.10;99.90
17370;DHT22;8802;52.402;4.920;2023-01-06T02:40:15;14.00;99.90
17370;DHT22;8802;52.402;4.920;2023-01-06T02:42:51;14.00;99.90
17370;DHT22;8802;52.402;4.920;2023-01-06T02:45:28;14.00;99.90
17370;DHT22;8802;52.402;4.920;2023-01-06T02:48:06;14.00;99.90
17370;DHT22;8802;52.402;4.920;2023-01-06T02:50:39;14.00;99.90
17370;DHT22;8802;52.402;4.920;2023-01-06T02:53:13;14.00;99.90
17370;DHT22;8802;52.402;4.920;2023-01-06T02:55:45;14.10;99.90
17370;DHT22;8802;52.402;4.920;2023-01-06T02:58:19;14.00;99.90
17370;DHT22;8802;52.402;4.920;2023-01-06T03:00:50;14.10;99.90
17370;DHT22;8802;52.402;4.920;2023-01-06T03:03:24;14.10;99.90
17370;DHT22;8802;52.402;4.920;2023-01-06T03:05:56;14.10;99.90
17370;DHT22;8802;52.402;4.920;2023-01-06T03:08:27;14.00;99.90
17370;DHT22;8802;52.402;4.920;2023-01-06T03:10:55;14.10;99.90
17370;DHT22;8802;52.402;4.920;2023-01-06T03:13:28;14.10;99.90
17370;DHT22;8802;52.402;4.920;2023-01-06T03:15:59;14.10;99.90
17370;DHT22;8802;52.402;4.920;2023-01-06T03:18:28;14.10;99.90
17370;DHT22;8802;52.402;4.920;2023-01-06T03:20:58;14.00;99.90
17370;DHT22;8802;52.402;4.920;2023-01-06T03:23:26;14.10;99.90
17370;DHT22;8802;52.402;4.920;2023-01-06T03:25:53;14.10;99.90
17370;DHT22;8802;52.402;4.920;2023-01-06T03:28:20;14.00;99.90
17370;DHT22;8802;52.402;4.920;2023-01-06T03:30:51;14.10;99.90
17370;DHT22;8802;52.402;4.920;2023-01-06T03:33:22;14.00;99.90
17370;DHT22;8802;52.402;4.920;2023-01-06T03:36:01;14.00;99.90
17370;DHT22;8802;52.402;4.920;2023-01-06T03:38:40;14.00;99.90
17370;DHT22;8802;52.402;4.920;2023-01-06T03:41:18;14.10;99.90
17370;DHT22;8802;52.402;4.920;2023-01-06T03:43:55;14.00;99.90
17370;DHT22;8802;52.402;4.920;2023-01-06T03:46:27;14.00;99.90
17370;DHT22;8802;52.402;4.920;2023-01-06T03:49:02;14.10;99.90
17370;DHT22;8802;52.402;4.920;2023-01-06T03:51:43;14.00;99.90
17370;DHT22;8802;52.402;4.920;2023-01-06T03:54:20;14.10;99.90
17370;DHT22;8802;52.402;4.920;2023-01-06T03:56:52;14.00;99.90
17370;DHT22;8802;52.402;4.920;2023-01-06T03:59:21;14.10;99.90
17370;DHT22;8802;52.402;4.920;2023-01-06T04:01:50;14.00;99.90
17370;DHT22;8802;52.402;4.920;2023-01-06T04:04:17;14.00;99.90
17370;DHT22;8802;52.402;4.920;2023-01-06T04:06:46;14.10;99.90
17370;DHT22;8802;52.402;4.920;2023-01-06T04:09:13;14.10;99.90
17370;DHT22;8802;52.402;4.920;2023-01-06T04:11:40;14.10;99.90
17370;DHT22;8802;52.402;4.920;2023-01-06T04:14:24;14.00;99.90
17370;DHT22;8802;52.402;4.920;2023-01-06T04:16:51;14.10;99.90
17370;DHT22;8802;52.402;4.920;2023-01-06T04:19:18;14.00;99.90
17370;DHT22;8802;52.402;4.920;2023-01-06T04:21:46;14.10;99.90
17370;DHT22;8802;52.402;4.920;2023-01-06T04:24:13;14.10;99.90
17370;DHT22;8802;52.402;4.920;2023-01-06T04:26:39;14.10;99.90
17370;DHT22;8802;52.402;4.920;2023-01-06T04:29:06;14.00;99.90
17370;DHT22;8802;52.402;4.920;2023-01-06T04:31:33;14.00;99.90
17370;DHT22;8802;52.402;4.920;2023-01-06T04:34:00;14.00;99.90
17370;DHT22;8802;52.402;4.920;2023-01-06T04:36:27;14.00;99.90
17370;DHT22;8802;52.402;4.920;2023-01-06T04:38:55;14.00;99.90
17370;DHT22;8802;52.402;4.920;2023-01-06T04:41:22;14.00;99.90
17370;DHT22;8802;52.402;4.920;2023-01-06T04:43:49;14.00;99.90
17370;DHT22;8802;52.402;4.920;2023-01-06T04:46:16;14.00;99.90
17370;DHT22;8802;52.402;4.920;2023-01-06T04:48:42;14.00;99.90
17370;DHT22;8802;52.402;4.920;2023-01-06T04:51:10;14.00;99.90
17370;DHT22;8802;52.402;4.920;2023-01-06T04:53:38;14.00;99.90
17370;DHT22;8802;52.402;4.920;2023-01-06T04:56:08;14.00;99.90
17370;DHT22;8802;52.402;4.920;2023-01-06T04:58:35;14.00;99.90
17370;DHT22;8802;52.402;4.920;2023-01-06T05:01:04;14.10;99.90
17370;DHT22;8802;52.402;4.920;2023-01-06T05:03:32;14.10;99.90
17370;DHT22;8802;52.402;4.920;2023-01-06T05:06:00;14.10;99.90
17370;DHT22;8802;52.402;4.920;2023-01-06T05:08:28;14.10;99.90
17370;DHT22;8802;52.402;4.920;2023-01-06T05:11:00;14.10;99.90
17370;DHT22;8802;52.402;4.920;2023-01-06T05:13:30;14.10;99.90
17370;DHT22;8802;52.402;4.920;2023-01-06T05:15:57;14.10;99.90
17370;DHT22;8802;52.402;4.920;2023-01-06T05:18:24;14.10;99.90
17370;DHT22;8802;52.402;4.920;2023-01-06T05:20:51;14.00;99.90
17370;DHT22;8802;52.402;4.920;2023-01-06T05:23:18;14.00;99.90
17370;DHT22;8802;52.402;4.920;2023-01-06T05:25:45;14.00;99.90
17370;DHT22;8802;52.402;4.920;2023-01-06T05:28:12;13.90;99.90
17370;DHT22;8802;52.402;4.920;2023-01-06T05:30:41;14.00;99.90
17370;DHT22;8802;52.402;4.920;2023-01-06T05:33:07;14.00;99.90
17370;DHT22;8802;52.402;4.920;2023-01-06T05:35:34;13.90;99.90
17370;DHT22;8802;52.402;4.920;2023-01-06T05:38:01;13.90;99.90
17370;DHT22;8802;52.402;4.920;2023-01-06T05:40:28;13.90;99.90
17370;DHT22;8802;52.402;4.920;2023-01-06T05:42:56;13.90;99.90
17370;DHT22;8802;52.402;4.920;2023-01-06T05:45:23;13.80;99.90
17370;DHT22;8802;52.402;4.920;2023-01-06T05:47:52;13.80;99.90
17370;DHT22;8802;52.402;4.920;2023-01-06T05:50:19;13.80;99.90
17370;DHT22;8802;52.402;4.920;2023-01-06T05:52:45;13.80;99.90
17370;DHT22;8802;52.402;4.920;2023-01-06T05:55:12;13.80;99.90
17370;DHT22;8802;52.402;4.920;2023-01-06T05:57:39;13.80;99.90
17370;DHT22;8802;52.402;4.920;2023-01-06T06:00:07;13.80;99.90
17370;DHT22;8802;52.402;4.920;2023-01-06T06:02:34;13.70;99.90
17370;DHT22;8802;52.402;4.920;2023-01-06T06:05:03;13.70;99.90
17370;DHT22;8802;52.402;4.920;2023-01-06T06:07:30;13.70;99.90
17370;DHT22;8802;52.402;4.920;2023-01-06T06:09:56;13.70;99.90
17370;DHT22;8802;52.402;4.920;2023-01-06T06:12:23;13.70;99.90
17370;DHT22;8802;52.402;4.920;2023-01-06T06:14:50;13.70;99.90
17370;DHT22;8802;52.402;4.920;2023-01-06T06:17:17;13.70;99.90
17370;DHT22;8802;52.402;4.920;2023-01-06T06:19:44;13.70;99.90
17370;DHT22;8802;52.402;4.920;2023-01-06T06:22:12;13.60;99.90
17370;DHT22;8802;52.402;4.920;2023-01-06T06:24:39;13.60;99.90
17370;DHT22;8802;52.402;4.920;2023-01-06T06:27:06;13.60;99.90
17370;DHT22;8802;52.402;4.920;2023-01-06T06:29:33;13.60;99.90
17370;DHT22;8802;52.402;4.920;2023-01-06T06:32:00;13.60;99.90
17370;DHT22;8802;52.402;4.920;2023-01-06T06:34:27;13.60;99.90
17370;DHT22;8802;52.402;4.920;2023-01-06T06:36:54;13.60;99.90
17370;DHT22;8802;52.402;4.920;2023-01-06T06:39:22;13.60;99.90
17370;DHT22;8802;52.402;4.920;2023-01-06T06:41:48;13.60;99.90
17370;DHT22;8802;52.402;4.920;2023-01-06T06:44:15;13.60;99.90
17370;DHT22;8802;52.402;4.920;2023-01-06T06:46:42;13.60;99.90
17370;DHT22;8802;52.402;4.920;2023-01-06T06:49:09;13.60;99.90
17370;DHT22;8802;52.402;4.920;2023-01-06T06:51:36;13.60;99.90
17370;DHT22;8802;52.402;4.920;2023-01-06T06:54:03;13.60;99.90
17370;DHT22;8802;52.402;4.920;2023-01-06T06:56:31;13.60;99.90
17370;DHT22;8802;52.402;4.920;2023-01-06T06:58:58;13.60;99.90
17370;DHT22;8802;52.402;4.920;2023-01-06T07:01:25;13.60;99.90
17370;DHT22;8802;52.402;4.920;2023-01-06T07:03:52;13.60;99.90
17370;DHT22;8802;52.402;4.920;2023-01-06T07:06:20;13.60;99.90
17370;DHT22;8802;52.402;4.920;2023-01-06T07:08:49;13.60;99.90
17370;DHT22;8802;52.402;4.920;2023-01-06T07:11:16;13.60;99.90
17370;DHT22;8802;52.402;4.920;2023-01-06T07:13:45;13.50;99.90
17370;DHT22;8802;52.402;4.920;2023-01-06T07:16:12;13.50;99.90
17370;DHT22;8802;52.402;4.920;2023-01-06T07:18:39;13.50;99.90
17370;DHT22;8802;52.402;4.920;2023-01-06T07:21:06;13.50;99.90
17370;DHT22;8802;52.402;4.920;2023-01-06T07:23:33;13.50;99.90
17370;DHT22;8802;52.402;4.920;2023-01-06T07:26:01;13.50;99.90
17370;DHT22;8802;52.402;4.920;2023-01-06T07:28:30;13.50;99.90
17370;DHT22;8802;52.402;4.920;2023-01-06T07:30:59;13.50;99.90
17370;DHT22;8802;52.402;4.920;2023-01-06T07:33:26;13.40;99.90
17370;DHT22;8802;52.402;4.920;2023-01-06T07:35:55;13.40;99.90
17370;DHT22;8802;52.402;4.920;2023-01-06T07:38:22;13.50;99.90
17370;DHT22;8802;52.402;4.920;2023-01-06T07:40:49;13.50;99.90
17370;DHT22;8802;52.402;4.920;2023-01-06T07:43:16;13.40;99.90
17370;DHT22;8802;52.402;4.920;2023-01-06T07:45:45;13.40;99.90
17370;DHT22;8802;52.402;4.920;2023-01-06T07:48:13;13.40;99.90
17370;DHT22;8802;52.402;4.920;2023-01-06T07:50:40;13.40;99.90
17370;DHT22;8802;52.402;4.920;2023-01-06T07:53:08;13.30;99.90
17370;DHT22;8802;52.402;4.920;2023-01-06T07:55:35;13.30;99.90
17370;DHT22;8802;52.402;4.920;2023-01-06T07:58:04;13.30;99.90
17370;DHT22;8802;52.402;4.920;2023-01-06T08:00:31;13.20;99.90
17370;DHT22;8802;52.402;4.920;2023-01-06T08:03:01;13.30;99.90
17370;DHT22;8802;52.402;4.920;2023-01-06T08:05:30;13.20;99.90
17370;DHT22;8802;52.402;4.920;2023-01-06T08:07:56;13.20;99.90
17370;DHT22;8802;52.402;4.920;2023-01-06T08:10:23;13.20;99.90
17370;DHT22;8802;52.402;4.920;2023-01-06T08:12:50;13.10;99.90
17370;DHT22;8802;52.402;4.920;2023-01-06T08:15:17;13.10;99.90
17370;DHT22;8802;52.402;4.920;2023-01-06T08:17:44;13.10;99.90
17370;DHT22;8802;52.402;4.920;2023-01-06T08:20:11;13.10;99.90
17370;DHT22;8802;52.402;4.920;2023-01-06T08:22:39;13.00;99.90
17370;DHT22;8802;52.402;4.920;2023-01-06T08:25:07;13.00;99.90
17370;DHT22;8802;52.402;4.920;2023-01-06T08:27:34;13.00;99.90
17370;DHT22;8802;52.402;4.920;2023-01-06T08:30:01;12.90;99.90
17370;DHT22;8802;52.402;4.920;2023-01-06T08:32:28;13.00;99.90
17370;DHT22;8802;52.402;4.920;2023-01-06T08:34:55;12.90;99.90
17370;DHT22;8802;52.402;4.920;2023-01-06T08:37:22;12.90;99.90
17370;DHT22;8802;52.402;4.920;2023-01-06T08:39:50;12.80;99.90
17370;DHT22;8802;52.402;4.920;2023-01-06T08:42:17;12.80;99.90
17370;DHT22;8802;52.402;4.920;2023-01-06T08:44:44;12.80;99.90
17370;DHT22;8802;52.402;4.920;2023-01-06T08:47:11;12.70;99.90
17370;DHT22;8802;52.402;4.920;2023-01-06T08:49:38;12.70;99.90
17370;DHT22;8802;52.402;4.920;2023-01-06T08:52:05;12.70;99.90
17370;DHT22;8802;52.402;4.920;2023-01-06T08:54:32;12.70;99.90
17370;DHT22;8802;52.402;4.920;2023-01-06T08:57:00;12.70;99.90
17370;DHT22;8802;52.402;4.920;2023-01-06T08:59:27;12.60;99.90
17370;DHT22;8802;52.402;4.920;2023-01-06T09:01:54;12.70;99.90
17370;DHT22;8802;52.402;4.920;2023-01-06T09:04:20;12.70;99.90
17370;DHT22;8802;52.402;4.920;2023-01-06T09:06:48;12.60;99.90
17370;DHT22;8802;52.402;4.920;2023-01-06T09:09:15;12.60;99.90
17370;DHT22;8802;52.402;4.920;2023-01-06T09:11:43;12.60;99.90
17370;DHT22;8802;52.402;4.920;2023-01-06T09:14:12;12.60;99.90
17370;DHT22;8802;52.402;4.920;2023-01-06T09:16:39;12.60;99.90
17370;DHT22;8802;52.402;4.920;2023-01-06T09:19:06;12.60;99.90
17370;DHT22;8802;52.402;4.920;2023-01-06T09:21:35;12.60;99.90
17370;DHT22;8802;52.402;4.920;2023-01-06T09:24:02;12.60;99.90
17370;DHT22;8802;52.402;4.920;2023-01-06T09:26:29;12.50;99.90
17370;DHT22;8802;52.402;4.920;2023-01-06T09:28:56;12.50;99.90
17370;DHT22;8802;52.402;4.920;2023-01-06T09:31:24;12.50;99.90
17370;DHT22;8802;52.402;4.920;2023-01-06T09:33:51;12.50;99.90
17370;DHT22;8802;52.402;4.920;2023-01-06T09:36:18;12.50;99.90
17370;DHT22;8802;52.402;4.920;2023-01-06T09:38:45;12.50;99.90
17370;DHT22;8802;52.402;4.920;2023-01-06T09:41:33;12.60;99.90
17370;DHT22;8802;52.402;4.920;2023-01-06T09:44:08;12.50;99.90
17370;DHT22;8802;52.402;4.920;2023-01-06T09:46:40;12.50;99.90
17370;DHT22;8802;52.402;4.920;2023-01-06T09:49:14;12.50;99.90
17370;DHT22;8802;52.402;4.920;2023-01-06T09:51:44;12.50;99.90
17370;DHT22;8802;52.402;4.920;2023-01-06T09:54:15;12.60;99.90
17370;DHT22;8802;52.402;4.920;2023-01-06T09:56:47;12.50;99.90
17370;DHT22;8802;52.402;4.920;2023-01-06T09:59:20;12.60;99.90
17370;DHT22;8802;52.402;4.920;2023-01-06T10:01:49;12.60;99.90
17370;DHT22;8802;52.402;4.920;2023-01-06T10:04:23;12.60;99.90
17370;DHT22;8802;52.402;4.920;2023-01-06T10:06:57;12.60;99.90
17370;DHT22;8802;52.402;4.920;2023-01-06T10:09:29;12.60;99.90
17370;DHT22;8802;52.402;4.920;2023-01-06T10:12:06;12.70;99.90
17370;DHT22;8802;52.402;4.920;2023-01-06T10:14:44;12.70;99.90
17370;DHT22;8802;52.402;4.920;2023-01-06T10:17:30;12.70;99.90
17370;DHT22;8802;52.402;4.920;2023-01-06T10:20:07;12.80;99.90
17370;DHT22;8802;52.402;4.920;2023-01-06T10:22:44;12.80;99.90
17370;DHT22;8802;52.402;4.920;2023-01-06T10:25:17;12.80;99.90
17370;DHT22;8802;52.402;4.920;2023-01-06T10:27:48;12.90;99.90
17370;DHT22;8802;52.402;4.920;2023-01-06T10:30:18;12.90;99.90
17370;DHT22;8802;52.402;4.920;2023-01-06T10:32:48;13.00;99.90
17370;DHT22;8802;52.402;4.920;2023-01-06T10:35:19;13.00;99.90
17370;DHT22;8802;52.402;4.920;2023-01-06T10:37:48;13.10;99.90
17370;DHT22;8802;52.402;4.920;2023-01-06T10:40:19;13.10;99.90
17370;DHT22;8802;52.402;4.920;2023-01-06T10:42:48;13.20;99.90
17370;DHT22;8802;52.402;4.920;2023-01-06T10:45:26;13.20;99.90
17370;DHT22;8802;52.402;4.920;2023-01-06T10:47:55;13.30;99.90
17370;DHT22;8802;52.402;4.920;2023-01-06T10:50:22;13.30;99.90
17370;DHT22;8802;52.402;4.920;2023-01-06T10:52:49;13.40;99.90
17370;DHT22;8802;52.402;4.920;2023-01-06T10:55:28;13.40;99.90
17370;DHT22;8802;52.402;4.920;2023-01-06T10:58:05;13.50;99.90
17370;DHT22;8802;52.402;4.920;2023-01-06T11:00:36;13.50;99.90
17370;DHT22;8802;52.402;4.920;2023-01-06T11:03:05;13.50;99.90
17370;DHT22;8802;52.402;4.920;2023-01-06T11:05:33;13.50;99.90
17370;DHT22;8802;52.402;4.920;2023-01-06T11:08:04;13.60;99.90
17370;DHT22;8802;52.402;4.920;2023-01-06T11:10:35;13.60;99.90
17370;DHT22;8802;52.402;4.920;2023-01-06T11:13:04;13.60;99.90
17370;DHT22;8802;52.402;4.920;2023-01-06T11:15:37;13.60;99.90
17370;DHT22;8802;52.402;4.920;2023-01-06T11:18:19;13.70;99.90
17370;DHT22;8802;52.402;4.920;2023-01-06T11:21:05;13.60;99.90
17370;DHT22;8802;52.402;4.920;2023-01-06T11:23:33;13.60;99.60
17370;DHT22;8802;52.402;4.920;2023-01-06T11:26:06;13.60;99.90
17370;DHT22;8802;52.402;4.920;2023-01-06T11:28:38;13.60;99.90
17370;DHT22;8802;52.402;4.920;2023-01-06T11:31:06;13.60;99.90
17370;DHT22;8802;52.402;4.920;2023-01-06T11:33:44;13.60;99.90
17370;DHT22;8802;52.402;4.920;2023-01-06T11:36:14;13.60;99.90
17370;DHT22;8802;52.402;4.920;2023-01-06T11:38:43;13.60;99.90
17370;DHT22;8802;52.402;4.920;2023-01-06T11:41:11;13.70;99.90
17370;DHT22;8802;52.402;4.920;2023-01-06T11:43:43;13.60;99.90
17370;DHT22;8802;52.402;4.920;2023-01-06T11:46:12;13.70;99.90
17370;DHT22;8802;52.402;4.920;2023-01-06T11:48:46;13.70;99.90
17370;DHT22;8802;52.402;4.920;2023-01-06T11:51:14;13.70;99.90
17370;DHT22;8802;52.402;4.920;2023-01-06T11:53:55;13.70;99.90
17370;DHT22;8802;52.402;4.920;2023-01-06T11:56:23;13.70;99.70
17370;DHT22;8802;52.402;4.920;2023-01-06T11:58:58;13.70;99.90
17370;DHT22;8802;52.402;4.920;2023-01-06T12:01:31;13.80;99.90
17370;DHT22;8802;52.402;4.920;2023-01-06T12:04:08;13.70;99.90
17370;DHT22;8802;52.402;4.920;2023-01-06T12:06:38;13.70;99.90
17370;DHT22;8802;52.402;4.920;2023-01-06T12:09:13;13.80;99.90
17370;DHT22;8802;52.402;4.920;2023-01-06T12:11:45;13.70;99.90
17370;DHT22;8802;52.402;4.920;2023-01-06T12:14:15;13.70;99.80
17370;DHT22;8802;52.402;4.920;2023-01-06T12:16:51;13.70;99.90
17370;DHT22;8802;52.402;4.920;2023-01-06T12:19:26;13.70;99.90
17370;DHT22;8802;52.402;4.920;2023-01-06T12:21:55;13.70;99.90
17370;DHT22;8802;52.402;4.920;2023-01-06T12:24:24;13.70;99.90
17370;DHT22;8802;52.402;4.920;2023-01-06T12:26:52;13.80;99.90
17370;DHT22;8802;52.402;4.920;2023-01-06T12:29:20;13.80;99.90
17370;DHT22;8802;52.402;4.920;2023-01-06T12:31:54;13.80;99.80
17370;DHT22;8802;52.402;4.920;2023-01-06T12:34:28;13.80;99.90
17370;DHT22;8802;52.402;4.920;2023-01-06T12:37:06;13.80;99.90
17370;DHT22;8802;52.402;4.920;2023-01-06T12:39:39;13.80;99.90
17370;DHT22;8802;52.402;4.920;2023-01-06T12:42:20;13.80;99.90
17370;DHT22;8802;52.402;4.920;2023-01-06T12:44:51;13.70;99.80
17370;DHT22;8802;52.402;4.920;2023-01-06T12:47:25;13.80;99.70
17370;DHT22;8802;52.402;4.920;2023-01-06T12:49:57;13.80;99.70
17370;DHT22;8802;52.402;4.920;2023-01-06T12:52:29;13.80;99.70
17370;DHT22;8802;52.402;4.920;2023-01-06T12:54:58;13.70;99.50
17370;DHT22;8802;52.402;4.920;2023-01-06T12:57:43;13.80;99.70
17370;DHT22;8802;52.402;4.920;2023-01-06T13:00:33;13.70;99.50
17370;DHT22;8802;52.402;4.920;2023-01-06T13:03:22;13.70;99.60
17370;DHT22;8802;52.402;4.920;2023-01-06T13:06:03;13.80;99.60
17370;DHT22;8802;52.402;4.920;2023-01-06T13:08:45;13.80;99.70
17370;DHT22;8802;52.402;4.920;2023-01-06T13:11:23;13.80;99.40
17370;DHT22;8802;52.402;4.920;2023-01-06T13:13:57;13.80;99.70
17370;DHT22;8802;52.402;4.920;2023-01-06T13:16:31;13.80;99.60
17370;DHT22;8802;52.402;4.920;2023-01-06T13:19:15;13.70;99.40
17370;DHT22;8802;52.402;4.920;2023-01-06T13:21:48;13.80;99.40
17370;DHT22;8802;52.402;4.920;2023-01-06T13:24:36;13.80;99.60
17370;DHT22;8802;52.402;4.920;2023-01-06T13:30:07;13.80;99.20
17370;DHT22;8802;52.402;4.920;2023-01-06T13:32:51;13.80;99.40
17370;DHT22;8802;52.402;4.920;2023-01-06T13:35:57;13.80;99.70
17370;DHT22;8802;52.402;4.920;2023-01-06T13:38:48;13.80;99.60
17370;DHT22;8802;52.402;4.920;2023-01-06T13:41:19;13.80;99.50
17370;DHT22;8802;52.402;4.920;2023-01-06T13:43:49;13.80;99.60
17370;DHT22;8802;52.402;4.920;2023-01-06T13:46:19;13.80;99.20
17370;DHT22;8802;52.402;4.920;2023-01-06T13:48:49;13.80;99.70
17370;DHT22;8802;52.402;4.920;2023-01-06T13:51:18;13.90;99.80
17370;DHT22;8802;52.402;4.920;2023-01-06T13:53:47;13.90;99.50
17370;DHT22;8802;52.402;4.920;2023-01-06T13:56:29;13.90;99.60
17370;DHT22;8802;52.402;4.920;2023-01-06T13:59:19;13.90;99.20
17370;DHT22;8802;52.402;4.920;2023-01-06T14:01:46;13.90;99.50
17370;DHT22;8802;52.402;4.920;2023-01-06T14:04:44;13.90;99.80
17370;DHT22;8802;52.402;4.920;2023-01-06T14:07:12;13.90;99.30
17370;DHT22;8802;52.402;4.920;2023-01-06T14:09:47;14.00;99.50
17370;DHT22;8802;52.402;4.920;2023-01-06T14:12:18;13.90;98.80
17370;DHT22;8802;52.402;4.920;2023-01-06T14:14:58;13.90;99.00
17370;DHT22;8802;52.402;4.920;2023-01-06T14:17:34;13.90;98.90
17370;DHT22;8802;52.402;4.920;2023-01-06T14:20:03;14.00;98.90
17370;DHT22;8802;52.402;4.920;2023-01-06T14:22:30;14.00;98.90
17370;DHT22;8802;52.402;4.920;2023-01-06T14:25:01;13.90;98.90
17370;DHT22;8802;52.402;4.920;2023-01-06T14:30:49;13.90;98.20
17370;DHT22;8802;52.402;4.920;2023-01-06T14:33:25;13.90;98.50
17370;DHT22;8802;52.402;4.920;2023-01-06T14:36:04;13.90;98.20
17370;DHT22;8802;52.402;4.920;2023-01-06T14:38:39;13.90;98.20
17370;DHT22;8802;52.402;4.920;2023-01-06T14:41:17;13.90;98.50
17370;DHT22;8802;52.402;4.920;2023-01-06T14:43:51;13.90;98.80
17370;DHT22;8802;52.402;4.920;2023-01-06T14:46:21;13.90;98.80
17370;DHT22;8802;52.402;4.920;2023-01-06T14:48:53;13.90;99.00
17370;DHT22;8802;52.402;4.920;2023-01-06T14:51:21;13.90;98.70
17370;DHT22;8802;52.402;4.920;2023-01-06T14:53:59;13.90;98.80
17370;DHT22;8802;52.402;4.920;2023-01-06T14:56:31;13.90;98.50
17370;DHT22;8802;52.402;4.920;2023-01-06T14:59:12;13.90;98.60
17370;DHT22;8802;52.402;4.920;2023-01-06T15:01:41;13.90;98.10
17370;DHT22;8802;52.402;4.920;2023-01-06T15:04:22;13.90;98.00
17370;DHT22;8802;52.402;4.920;2023-01-06T15:07:03;13.90;98.20
17370;DHT22;8802;52.402;4.920;2023-01-06T15:09:31;13.90;98.60
17370;DHT22;8802;52.402;4.920;2023-01-06T15:11:59;13.90;98.30
17370;DHT22;8802;52.402;4.920;2023-01-06T15:14:28;13.80;98.70
17370;DHT22;8802;52.402;4.920;2023-01-06T15:16:58;13.80;98.90
17370;DHT22;8802;52.402;4.920;2023-01-06T15:19:26;13.80;99.20
17370;DHT22;8802;52.402;4.920;2023-01-06T15:21:54;13.80;99.10
17370;DHT22;8802;52.402;4.920;2023-01-06T15:24:23;13.80;99.00
17370;DHT22;8802;52.402;4.920;2023-01-06T15:26:51;13.80;99.00
17370;DHT22;8802;52.402;4.920;2023-01-06T15:29:23;13.80;99.00
17370;DHT22;8802;52.402;4.920;2023-01-06T15:31:52;13.80;98.60
17370;DHT22;8802;52.402;4.920;2023-01-06T15:34:21;13.80;98.80
17370;DHT22;8802;52.402;4.920;2023-01-06T15:36:52;13.80;98.90
17370;DHT22;8802;52.402;4.920;2023-01-06T15:39:25;13.80;99.00
17370;DHT22;8802;52.402;4.920;2023-01-06T15:41:53;13.80;99.00
17370;DHT22;8802;52.402;4.920;2023-01-06T15:44:26;13.80;98.80
17370;DHT22;8802;52.402;4.920;2023-01-06T15:46:56;13.70;98.90
17370;DHT22;8802;52.402;4.920;2023-01-06T15:49:29;13.70;99.00
17370;DHT22;8802;52.402;4.920;2023-01-06T15:51:59;13.70;98.90
17370;DHT22;8802;52.402;4.920;2023-01-06T15:54:29;13.70;99.00
17370;DHT22;8802;52.402;4.920;2023-01-06T15:56:57;13.60;99.20
17370;DHT22;8802;52.402;4.920;2023-01-06T15:59:26;13.60;99.20
17370;DHT22;8802;52.402;4.920;2023-01-06T16:01:54;13.60;99.10
17370;DHT22;8802;52.402;4.920;2023-01-06T16:04:22;13.60;99.20
17370;DHT22;8802;52.402;4.920;2023-01-06T16:06:49;13.60;99.00
17370;DHT22;8802;52.402;4.920;2023-01-06T16:09:26;13.60;99.30
17370;DHT22;8802;52.402;4.920;2023-01-06T16:11:57;13.50;99.00
17370;DHT22;8802;52.402;4.920;2023-01-06T16:14:30;13.50;99.10
17370;DHT22;8802;52.402;4.920;2023-01-06T16:17:03;13.50;99.20
17370;DHT22;8802;52.402;4.920;2023-01-06T16:19:32;13.50;99.50